createdAt,value
2018-09-18T00:02:23.095Z,95790.03
2018-09-18T00:04:57.923Z,95790.16
2018-09-18T00:07:32.406Z,95790.16
2018-09-18T00:10:07.364Z,95785.86
2018-09-18T00:12:41.871Z,95782.00
2018-09-18T00:15:16.736Z,95782.95
2018-09-18T00:17:51.683Z,95782.66
2018-09-18T00:20:26.017Z,95788.05
2018-09-18T00:23:00.623Z,95783.15
2018-09-18T00:25:35.847Z,95775.89
2018-09-18T00:28:10.455Z,95772.25
2018-09-18T00:30:45.343Z,95759.53
2018-09-18T00:33:20.339Z,95760.44
2018-09-18T00:35:55.035Z,95762.69
2018-09-18T00:38:30.507Z,95757.66
2018-09-18T00:41:05.467Z,95757.66
2018-09-18T00:43:39.815Z,95757.36
2018-09-18T00:46:14.254Z,95750.72
2018-09-18T00:48:48.702Z,95753.98
2018-09-18T00:51:23.236Z,95758.33
2018-09-18T00:53:58.031Z,95753.00
2018-09-18T00:56:32.512Z,95753.80
2018-09-18T00:59:08.061Z,95752.04
2018-09-18T01:01:42.404Z,95754.66
2018-09-18T01:04:16.965Z,95755.68
2018-09-18T01:06:51.904Z,95748.53
2018-09-18T01:09:26.573Z,95753.48
2018-09-18T01:12:01.751Z,95759.27
2018-09-18T01:14:36.810Z,95747.83
2018-09-18T01:17:11.372Z,95750.88
2018-09-18T01:19:46.481Z,95753.56
2018-09-18T01:22:20.941Z,95761.53
2018-09-18T01:24:55.654Z,95755.98
2018-09-18T01:27:30.189Z,95751.38
2018-09-18T01:30:04.905Z,95750.41
2018-09-18T01:32:39.352Z,95752.53
2018-09-18T01:35:13.911Z,95747.66
2018-09-18T01:37:48.552Z,95759.09
2018-09-18T01:40:23.641Z,95755.36
2018-09-18T01:42:58.132Z,95754.66
2018-09-18T01:45:32.890Z,95754.52
2018-09-18T01:48:07.659Z,95759.67
2018-09-18T01:50:42.431Z,95766.23
2018-09-18T01:53:16.743Z,95761.72
2018-09-18T01:55:51.546Z,95774.05
2018-09-18T01:58:26.493Z,95769.61
2018-09-18T02:01:01.088Z,95766.91
2018-09-18T02:03:35.447Z,95764.50
2018-09-18T02:06:10.067Z,95764.28
2018-09-18T02:08:44.595Z,95764.11
2018-09-18T02:11:19.620Z,95765.97
2018-09-18T02:13:54.125Z,95763.73
2018-09-18T02:16:29.064Z,95763.44
2018-09-18T02:19:03.596Z,95770.88
2018-09-18T02:21:37.905Z,95772.91
2018-09-18T02:24:12.463Z,95764.37
2018-09-18T02:26:46.868Z,95756.63
2018-09-18T02:29:21.155Z,95758.95
2018-09-18T02:31:55.459Z,95757.23
2018-09-18T02:34:30.019Z,95756.34
2018-09-18T02:37:04.755Z,95762.91
2018-09-18T02:39:39.480Z,95762.83
2018-09-18T02:42:14.308Z,95757.38
2018-09-18T02:44:49.544Z,95756.88
2018-09-18T02:47:24.277Z,95770.45
2018-09-18T02:49:58.636Z,95769.64
2018-09-18T02:52:33.057Z,95757.34
2018-09-18T02:55:08.103Z,95755.83
2018-09-18T02:57:43.068Z,95757.55
2018-09-18T03:00:17.738Z,95754.31
2018-09-18T03:02:52.196Z,95759.97
2018-09-18T03:05:27.250Z,95764.41
2018-09-18T03:08:01.912Z,95767.44
2018-09-18T03:10:36.939Z,95767.44
2018-09-18T03:13:11.585Z,95772.09
2018-09-18T03:15:46.467Z,95768.45
2018-09-18T03:18:20.842Z,95762.91
2018-09-18T03:20:55.596Z,95767.77
2018-09-18T03:23:30.392Z,95769.17
2018-09-18T03:26:04.863Z,95769.38
2018-09-18T03:28:39.496Z,95766.97
2018-09-18T03:31:13.878Z,95776.43
2018-09-18T03:33:48.395Z,95774.44
2018-09-18T03:36:22.827Z,95770.92
2018-09-18T03:38:57.128Z,95771.13
2018-09-18T03:41:31.983Z,95769.31
2018-09-18T03:44:06.852Z,95768.20
2018-09-18T03:46:41.907Z,95774.13
2018-09-18T03:49:16.557Z,95774.16
2018-09-18T03:51:51.127Z,95774.34
2018-09-18T03:54:25.482Z,95771.92
2018-09-18T03:56:59.817Z,95771.30
2018-09-18T03:59:34.349Z,95767.19
2018-09-18T04:02:09.008Z,95767.81
2018-09-18T04:04:43.648Z,95774.24
2018-09-18T04:07:18.031Z,95771.53
2018-09-18T04:09:52.647Z,95769.41
2018-09-18T04:12:27.187Z,95771.55
2018-09-18T04:15:02.020Z,95771.23
2018-09-18T04:17:36.895Z,95773.16
2018-09-18T04:20:12.156Z,95776.88
2018-09-18T04:22:46.713Z,95774.77
2018-09-18T04:25:21.492Z,95776.88
2018-09-18T04:27:58.003Z,95772.34
2018-09-18T04:30:32.683Z,95772.34
2018-09-18T04:33:07.060Z,95779.91
2018-09-18T04:35:41.571Z,95779.81
2018-09-18T04:38:16.071Z,95779.52
2018-09-18T04:40:50.680Z,95785.84
2018-09-18T04:43:25.263Z,95786.56
2018-09-18T04:46:00.157Z,95787.14
2018-09-18T04:48:34.696Z,95796.21
2018-09-18T04:51:09.736Z,95797.22
2018-09-18T04:53:44.151Z,95799.84
2018-09-18T04:56:18.704Z,95798.92
2018-09-18T04:58:53.752Z,95791.69
2018-09-18T05:01:28.071Z,95794.19
2018-09-18T05:04:02.705Z,95798.83
2018-09-18T05:06:37.263Z,95796.13
2018-09-18T05:09:11.994Z,95791.69
2018-09-18T05:11:46.751Z,95799.13
2018-09-18T05:14:21.400Z,95802.26
2018-09-18T05:16:55.815Z,95806.19
2018-09-18T05:19:30.911Z,95808.30
2018-09-18T05:22:06.184Z,95815.64
2018-09-18T05:24:40.462Z,95811.31
2018-09-18T05:27:15.373Z,95819.80
2018-09-18T05:29:49.775Z,95812.62
2018-09-18T05:32:24.319Z,95822.39
2018-09-18T05:34:58.750Z,95819.46
2018-09-18T05:37:33.512Z,95817.77
2018-09-18T05:40:07.835Z,95819.56
2018-09-18T05:42:42.204Z,95822.06
2018-09-18T05:45:17.135Z,95826.30
2018-09-18T05:47:52.072Z,95827.59
2018-09-18T05:50:26.478Z,95823.54
2018-09-18T05:53:01.579Z,95827.77
2018-09-18T05:55:36.040Z,95828.38
2018-09-18T05:58:10.531Z,95827.23
2018-09-18T06:00:45.417Z,95831.22
2018-09-18T06:03:19.981Z,95835.66
2018-09-18T06:05:54.691Z,95842.59
2018-09-18T06:08:29.268Z,95834.80
2018-09-18T06:11:04.416Z,95842.75
2018-09-18T06:13:38.732Z,95832.77
2018-09-18T06:16:13.187Z,95840.59
2018-09-18T06:18:48.218Z,95841.56
2018-09-18T06:21:23.021Z,95844.25
2018-09-18T06:23:57.636Z,95842.92
2018-09-18T06:26:32.181Z,95837.33
2018-09-18T06:29:06.881Z,95835.38
2018-09-18T06:31:41.635Z,95832.73
2018-09-18T06:34:16.106Z,95834.63
2018-09-18T06:36:50.441Z,95837.84
2018-09-18T06:39:25.517Z,95841.81
2018-09-18T06:41:59.855Z,95843.97
2018-09-18T06:44:34.642Z,95837.45
2018-09-18T06:47:09.025Z,95839.73
2018-09-18T06:49:44.829Z,95844.03
2018-09-18T06:52:19.463Z,95847.76
2018-09-18T06:54:54.142Z,95850.58
2018-09-18T06:57:28.912Z,95851.45
2018-09-18T07:00:03.661Z,95855.42
2018-09-18T07:02:38.208Z,95854.33
2018-09-18T07:05:12.649Z,95848.38
2018-09-18T07:07:46.980Z,95850.48
2018-09-18T07:10:21.996Z,95853.06
2018-09-18T07:12:56.964Z,95857.45
2018-09-18T07:15:31.731Z,95856.29
2018-09-18T07:18:07.173Z,95859.54
2018-09-18T07:20:41.959Z,95863.53
2018-09-18T07:23:16.596Z,95860.51
2018-09-18T07:25:51.207Z,95857.65
2018-09-18T07:28:26.232Z,95852.16
2018-09-18T07:31:00.891Z,95849.51
2018-09-18T07:33:35.366Z,95850.20
2018-09-18T07:36:10.427Z,95852.59
2018-09-18T07:38:45.552Z,95857.53
2018-09-18T07:41:20.756Z,95857.70
2018-09-18T07:43:55.811Z,95853.09
2018-09-18T07:46:30.753Z,95858.09
2018-09-18T07:49:06.203Z,95853.30
2018-09-18T07:51:40.902Z,95856.01
2018-09-18T07:54:15.278Z,95857.38
2018-09-18T07:56:50.150Z,95862.11
2018-09-18T07:59:24.804Z,95858.63
2018-09-18T08:01:59.344Z,95863.06
2018-09-18T08:04:33.831Z,95863.49
2018-09-18T08:07:09.221Z,95861.75
2018-09-18T08:09:43.884Z,95867.56
2018-09-18T08:12:19.521Z,95865.17
2018-09-18T08:14:54.052Z,95869.16
2018-09-18T08:17:28.815Z,95862.52
2018-09-18T08:20:03.392Z,95860.36
2018-09-18T08:22:37.952Z,95863.33
2018-09-18T08:25:13.165Z,95864.47
2018-09-18T08:27:47.939Z,95863.19
2018-09-18T08:30:22.279Z,95867.24
2018-09-18T08:32:56.835Z,95872.34
2018-09-18T08:35:31.379Z,95867.84
2018-09-18T08:38:06.440Z,95872.86
2018-09-18T08:40:41.118Z,95872.99
2018-09-18T08:43:15.892Z,95874.48
2018-09-18T08:45:50.219Z,95864.86
2018-09-18T08:48:29.938Z,95869.05
2018-09-18T08:51:05.097Z,95872.66
2018-09-18T08:53:39.954Z,95875.11
2018-09-18T08:56:15.039Z,95868.95
2018-09-18T08:58:50.063Z,95873.58
2018-09-18T09:01:25.216Z,95871.05
2018-09-18T09:04:00.545Z,95873.25
2018-09-18T09:06:35.332Z,95866.45
2018-09-18T09:09:12.642Z,95869.69
2018-09-18T09:11:47.879Z,95869.97
2018-09-18T09:14:22.901Z,95876.37
2018-09-18T09:16:57.427Z,95881.95
2018-09-18T09:19:32.507Z,95875.31
2018-09-18T09:22:07.513Z,95876.39
2018-09-18T09:24:42.621Z,95862.52
2018-09-18T09:27:17.943Z,95862.77
2018-09-18T09:29:52.432Z,95861.40
2018-09-18T09:32:27.560Z,95860.33
2018-09-18T09:35:02.580Z,95858.99
2018-09-18T09:37:37.425Z,95856.56
2018-09-18T09:40:11.989Z,95855.91
2018-09-18T09:42:46.480Z,95857.69
2018-09-18T09:45:21.535Z,95853.86
2018-09-18T09:47:55.957Z,95854.03
2018-09-18T09:50:30.708Z,95851.27
2018-09-18T09:53:04.992Z,95843.22
2018-09-18T09:55:39.415Z,95852.39
2018-09-18T09:58:13.821Z,95848.02
2018-09-18T10:00:53.679Z,95842.77
2018-09-18T10:03:28.271Z,95843.21
2018-09-18T10:06:02.752Z,95839.77
2018-09-18T10:08:37.259Z,95834.55
2018-09-18T10:11:12.433Z,95833.41
2018-09-18T10:13:47.415Z,95831.45
2018-09-18T10:16:21.858Z,95830.88
2018-09-18T10:18:56.582Z,95834.02
2018-09-18T10:21:31.084Z,95830.16
2018-09-18T10:24:05.787Z,95826.88
2018-09-18T10:26:41.183Z,95824.48
2018-09-18T10:29:16.546Z,95821.48
2018-09-18T10:31:51.375Z,95825.11
2018-09-18T10:34:25.878Z,95824.02
2018-09-18T10:37:00.767Z,95811.98
2018-09-18T10:39:36.172Z,95810.70
2018-09-18T10:42:11.496Z,95818.63
2018-09-18T10:44:46.146Z,95820.29
2018-09-18T10:47:20.661Z,95820.16
2018-09-18T10:49:55.345Z,95816.41
2018-09-18T10:52:30.331Z,95813.73
2018-09-18T10:55:04.887Z,95807.54
2018-09-18T10:57:39.540Z,95809.68
2018-09-18T11:00:14.248Z,95804.98
2018-09-18T11:02:49.013Z,95804.48
2018-09-18T11:05:23.714Z,95803.23
2018-09-18T11:07:58.547Z,95799.53
2018-09-18T11:10:33.841Z,95800.48
2018-09-18T11:13:08.735Z,95802.77
2018-09-18T11:15:43.409Z,95802.65
2018-09-18T11:18:18.524Z,95807.42
2018-09-18T11:20:53.460Z,95810.91
2018-09-18T11:23:28.691Z,95798.28
2018-09-18T11:26:03.384Z,95801.29
2018-09-18T11:28:38.347Z,95788.84
2018-09-18T11:31:12.804Z,95796.95
2018-09-18T11:33:47.711Z,95791.95
2018-09-18T11:36:22.255Z,95790.67
2018-09-18T11:38:57.296Z,95796.09
2018-09-18T11:41:31.802Z,95791.08
2018-09-18T11:44:06.436Z,95794.48
2018-09-18T11:46:41.252Z,95793.75
2018-09-18T11:49:16.312Z,95795.64
2018-09-18T11:51:50.609Z,95790.59
2018-09-18T11:54:32.735Z,95788.73
2018-09-18T11:57:07.780Z,95784.70
2018-09-18T11:59:43.148Z,95784.05
2018-09-18T12:02:18.164Z,95779.44
2018-09-18T12:04:53.536Z,95780.34
2018-09-18T12:07:28.495Z,95779.47
2018-09-18T12:10:03.309Z,95778.59
2018-09-18T12:12:38.283Z,95775.80
2018-09-18T12:15:12.908Z,95777.40
2018-09-18T12:17:47.840Z,95779.28
2018-09-18T12:20:22.544Z,95769.70
2018-09-18T12:22:57.286Z,95774.47
2018-09-18T12:25:32.107Z,95768.12
2018-09-18T12:28:06.859Z,95765.85
2018-09-18T12:30:41.561Z,95763.05
2018-09-18T12:33:16.123Z,95764.82
2018-09-18T12:35:50.995Z,95759.67
2018-09-18T12:38:25.672Z,95757.36
2018-09-18T12:41:00.515Z,95749.50
2018-09-18T12:43:35.697Z,95744.03
2018-09-18T12:46:10.132Z,95745.91
2018-09-18T12:48:44.731Z,95744.30
2018-09-18T12:51:19.284Z,95741.50
2018-09-18T12:53:54.080Z,95735.73
2018-09-18T12:56:29.083Z,95731.25
2018-09-18T12:59:03.944Z,95737.73
2018-09-18T13:01:38.431Z,95733.89
2018-09-18T13:04:13.033Z,95734.57
2018-09-18T13:06:48.200Z,95728.66
2018-09-18T13:09:22.816Z,95735.77
2018-09-18T13:11:57.530Z,95732.77
2018-09-18T13:14:32.285Z,95726.41
2018-09-18T13:17:07.702Z,95721.34
2018-09-18T13:19:42.407Z,95724.20
2018-09-18T13:22:17.021Z,95722.12
2018-09-18T13:24:52.430Z,95724.08
2018-09-18T13:27:27.115Z,95728.47
2018-09-18T13:30:01.889Z,95732.23
2018-09-18T13:32:36.615Z,95725.45
2018-09-18T13:35:11.368Z,95730.65
2018-09-18T13:37:46.216Z,95720.45
2018-09-18T13:40:21.279Z,95724.14
2018-09-18T13:42:55.807Z,95716.37
2018-09-18T13:45:30.280Z,95713.66
2018-09-18T13:48:04.989Z,95712.19
2018-09-18T13:50:39.717Z,95714.73
2018-09-18T13:53:14.259Z,95714.34
2018-09-18T13:55:49.383Z,95708.75
2018-09-18T13:58:24.148Z,95710.09
2018-09-18T14:00:58.920Z,95709.93
2018-09-18T14:03:35.608Z,95694.87
2018-09-18T14:06:17.549Z,95697.98
2018-09-18T14:08:52.911Z,95699.27
2018-09-18T14:11:27.995Z,95696.70
2018-09-18T14:14:02.764Z,95697.05
2018-09-18T14:16:37.135Z,95692.59
2018-09-18T14:19:11.910Z,95699.19
2018-09-18T14:21:48.253Z,95685.49
2018-09-18T14:24:23.504Z,95687.48
2018-09-18T14:26:58.059Z,95680.78
2018-09-18T14:29:32.535Z,95684.64
2018-09-18T14:32:07.525Z,95685.55
2018-09-18T14:34:42.448Z,95679.86
2018-09-18T14:37:17.675Z,95676.31
2018-09-18T14:39:52.217Z,95676.16
2018-09-18T14:42:26.580Z,95679.15
2018-09-18T14:45:01.216Z,95680.23
2018-09-18T14:47:35.633Z,95685.59
2018-09-18T14:50:10.344Z,95688.87
2018-09-18T14:52:45.007Z,95681.62
2018-09-18T14:55:20.035Z,95677.47
2018-09-18T14:57:54.514Z,95680.31
2018-09-18T15:00:28.992Z,95674.31
2018-09-18T15:03:03.312Z,95675.18
2018-09-18T15:05:38.200Z,95668.37
2018-09-18T15:08:13.112Z,95664.70
2018-09-18T15:10:48.008Z,95664.74
2018-09-18T15:13:22.566Z,95666.63
2018-09-18T15:15:56.999Z,95666.99
2018-09-18T15:18:32.713Z,95665.84
2018-09-18T15:21:07.220Z,95671.08
2018-09-18T15:23:42.821Z,95659.70
2018-09-18T15:26:17.329Z,95660.89
2018-09-18T15:28:52.292Z,95665.84
2018-09-18T15:31:26.814Z,95661.55
2018-09-18T15:34:01.470Z,95664.80
2018-09-18T15:36:37.249Z,95659.99
2018-09-18T15:39:11.491Z,95667.64
2018-09-18T15:41:45.840Z,95664.50
2018-09-18T15:44:20.479Z,95665.05
2018-09-18T15:46:54.988Z,95664.85
2018-09-18T15:49:29.529Z,95664.69
2018-09-18T15:52:04.534Z,95662.63
2018-09-18T15:54:39.431Z,95661.97
2018-09-18T15:57:13.996Z,95661.02
2018-09-18T15:59:48.529Z,95655.25
2018-09-18T16:02:23.470Z,95653.23
2018-09-18T16:04:57.927Z,95659.40
2018-09-18T16:07:32.553Z,95657.30
2018-09-18T16:10:07.449Z,95664.83
2018-09-18T16:12:42.191Z,95665.15
2018-09-18T16:15:16.780Z,95672.91
2018-09-18T16:17:51.821Z,95671.11
2018-09-18T16:20:26.548Z,95675.94
2018-09-18T16:23:00.941Z,95673.53
2018-09-18T16:25:35.237Z,95664.25
2018-09-18T16:28:09.900Z,95676.23
2018-09-18T16:30:44.304Z,95675.73
2018-09-18T16:33:19.125Z,95677.31
2018-09-18T16:35:57.538Z,95680.01
2018-09-18T16:38:31.888Z,95683.46
2018-09-18T16:41:07.387Z,95689.86
2018-09-18T16:43:42.026Z,95700.23
2018-09-18T16:49:00.131Z,95712.42
2018-09-18T16:51:34.650Z,95717.72
2018-09-18T16:54:09.081Z,95718.75
2018-09-18T16:56:43.540Z,95722.73
2018-09-18T16:59:18.042Z,95716.05
2018-09-18T17:01:52.507Z,95724.75
2018-09-18T17:04:27.295Z,95735.88
2018-09-18T17:07:01.896Z,95747.52
2018-09-18T17:09:36.540Z,95757.00
2018-09-18T17:12:11.041Z,95754.31
2018-09-18T17:14:45.699Z,95759.31
2018-09-18T17:17:20.289Z,95755.50
2018-09-18T17:19:54.672Z,95757.19
2018-09-18T17:22:29.653Z,95759.91
2018-09-18T17:25:05.030Z,95758.54
2018-09-18T17:27:39.589Z,95758.54
2018-09-18T17:30:14.202Z,95759.48
2018-09-18T17:32:48.512Z,95757.00
2018-09-18T17:35:22.929Z,95755.36
2018-09-18T17:37:57.923Z,95749.49
2018-09-18T17:40:32.320Z,95752.83
2018-09-18T17:43:07.436Z,95750.58
2018-09-18T17:45:42.216Z,95756.84
2018-09-18T17:48:16.976Z,95759.09
2018-09-18T17:50:51.634Z,95769.63
2018-09-18T17:53:26.210Z,95764.80
2018-09-18T17:56:01.244Z,95778.19
2018-09-18T17:58:35.764Z,95777.55
2018-09-18T18:01:10.532Z,95774.48
2018-09-18T18:03:45.359Z,95780.73
2018-09-18T18:06:19.776Z,95778.41
2018-09-18T18:08:56.736Z,95781.62
2018-09-18T18:11:31.600Z,95782.19
2018-09-18T18:14:06.224Z,95793.42
2018-09-18T18:16:41.007Z,95792.63
2018-09-18T18:19:15.709Z,95794.56
2018-09-18T18:21:50.211Z,95808.11
2018-09-18T18:24:24.663Z,95816.80
2018-09-18T18:26:59.665Z,95830.57
2018-09-18T18:29:34.072Z,95837.84
2018-09-18T18:32:09.296Z,95834.69
2018-09-18T18:34:43.582Z,95850.10
2018-09-18T18:37:18.088Z,95861.98
2018-09-18T18:39:52.565Z,95865.38
2018-09-18T18:42:26.916Z,95867.35
2018-09-18T18:45:02.174Z,95881.69
2018-09-18T18:47:37.183Z,95888.52
2018-09-18T18:50:11.943Z,95889.42
2018-09-18T18:52:46.447Z,95893.44
2018-09-18T18:55:20.953Z,95896.24
2018-09-18T18:57:55.812Z,95887.80
2018-09-18T19:00:30.494Z,95879.33
2018-09-18T19:03:05.508Z,95866.91
2018-09-18T19:05:39.909Z,95870.80
2018-09-18T19:08:15.049Z,95879.00
2018-09-18T19:10:49.720Z,95881.12
2018-09-18T19:13:24.136Z,95878.98
2018-09-18T19:15:58.448Z,95872.53
2018-09-18T19:18:32.937Z,95858.16
2018-09-18T19:21:07.666Z,95861.66
2018-09-18T19:23:42.366Z,95856.34
2018-09-18T19:26:16.953Z,95850.93
2018-09-18T19:28:51.579Z,95848.38
2018-09-18T19:31:26.335Z,95843.60
2018-09-18T19:34:01.043Z,95844.77
2018-09-18T19:36:35.809Z,95847.58
2018-09-18T19:39:10.987Z,95846.13
2018-09-18T19:41:45.611Z,95854.66
2018-09-18T19:44:20.229Z,95888.22
2018-09-18T19:46:54.992Z,95900.53
2018-09-18T19:49:29.455Z,95887.66
2018-09-18T19:52:04.409Z,95907.98
2018-09-18T19:54:39.602Z,95909.45
2018-09-18T19:57:14.691Z,95906.25
2018-09-18T20:00:03.242Z,95902.37
2018-09-18T20:02:38.492Z,95914.28
2018-09-18T20:05:13.514Z,95914.91
2018-09-18T20:07:48.008Z,95910.96
2018-09-18T20:10:22.975Z,95914.17
2018-09-18T20:12:57.420Z,95922.97
2018-09-18T20:15:31.920Z,95928.44
2018-09-18T20:18:06.682Z,95928.25
2018-09-18T20:20:41.503Z,95920.39
2018-09-18T20:23:16.127Z,95910.08
2018-09-18T20:25:50.573Z,95906.96
2018-09-18T20:28:25.292Z,95898.77
2018-09-18T20:31:00.268Z,95901.34
2018-09-18T20:33:35.065Z,95909.81
2018-09-18T20:36:09.651Z,95911.04
2018-09-18T20:38:44.620Z,95904.48
2018-09-18T20:41:19.203Z,95911.34
2018-09-18T20:43:53.547Z,95918.08
2018-09-18T20:46:28.104Z,95922.09
2018-09-18T20:49:02.744Z,95915.73
2018-09-18T20:51:37.413Z,95915.08
2018-09-18T20:54:12.248Z,95905.86
2018-09-18T20:56:46.899Z,95906.86
2018-09-18T20:59:21.658Z,95902.72
2018-09-18T21:01:56.249Z,95894.09
2018-09-18T21:04:31.353Z,95886.44
2018-09-18T21:07:06.500Z,95886.34
2018-09-18T21:09:40.915Z,95899.92
2018-09-18T21:12:15.239Z,95900.58
2018-09-18T21:14:49.524Z,95896.08
2018-09-18T21:17:24.035Z,95903.74
2018-09-18T21:19:59.424Z,95898.34
2018-09-18T21:22:33.851Z,95902.57
2018-09-18T21:25:15.850Z,95907.90
2018-09-18T21:27:50.474Z,95904.05
2018-09-18T21:30:25.471Z,95894.45
2018-09-18T21:32:59.940Z,95895.55
2018-09-18T21:35:34.535Z,95895.84
2018-09-18T21:38:09.083Z,95898.41
2018-09-18T21:40:44.359Z,95904.98
2018-09-18T21:43:19.151Z,95903.38
2018-09-18T21:45:54.214Z,95904.03
2018-09-18T21:48:29.747Z,95909.53
2018-09-18T21:51:04.395Z,95918.65
2018-09-18T21:53:38.880Z,95923.84
2018-09-18T21:56:13.657Z,95925.09
2018-09-18T21:58:48.240Z,95923.70
2018-09-18T22:01:23.194Z,95920.12
2018-09-18T22:03:57.808Z,95927.12
2018-09-18T22:06:32.226Z,95937.87
2018-09-18T22:09:06.557Z,95960.33
2018-09-18T22:11:41.259Z,95967.50
2018-09-18T22:14:15.952Z,95961.48
2018-09-18T22:16:50.541Z,95951.69
2018-09-18T22:19:24.913Z,95969.40
2018-09-18T22:21:59.602Z,95973.42
2018-09-18T22:24:34.431Z,95975.17
2018-09-18T22:27:08.988Z,95974.30
2018-09-18T22:29:43.348Z,95972.23
2018-09-18T22:32:17.911Z,95967.22
2018-09-18T22:34:52.423Z,95970.50
2018-09-18T22:37:26.857Z,95972.48
2018-09-18T22:40:01.584Z,95973.35
2018-09-18T22:42:36.099Z,95970.94
2018-09-18T22:45:10.468Z,95969.03
2018-09-18T22:47:45.424Z,95969.93
2018-09-18T22:50:20.534Z,95968.53
2018-09-18T22:52:55.027Z,95964.56
2018-09-18T22:55:29.837Z,95965.17
2018-09-18T22:58:04.124Z,95964.44
2018-09-18T23:00:38.636Z,95961.64
2018-09-18T23:03:13.295Z,95959.66
2018-09-18T23:05:47.642Z,95947.17
2018-09-18T23:08:22.384Z,95936.12
2018-09-18T23:10:57.154Z,95926.61
2018-09-18T23:13:31.728Z,95922.82
2018-09-18T23:16:06.695Z,95921.88
2018-09-18T23:18:41.078Z,95918.30
2018-09-18T23:21:16.234Z,95922.09
2018-09-18T23:23:50.678Z,95926.84
2018-09-18T23:26:25.504Z,95932.84
2018-09-18T23:29:00.317Z,95938.63
2018-09-18T23:31:34.787Z,95941.55
2018-09-18T23:34:09.681Z,95938.02
2018-09-18T23:36:44.439Z,95936.41
2018-09-18T23:39:19.099Z,95946.36
2018-09-18T23:41:53.367Z,95950.38
2018-09-18T23:44:28.196Z,95951.86
2018-09-18T23:47:02.603Z,95953.90
2018-09-18T23:49:37.397Z,95951.33
2018-09-18T23:52:11.797Z,95944.60
2018-09-18T23:54:46.332Z,95944.33
2018-09-18T23:57:21.261Z,95954.41
2018-09-18T23:59:55.997Z,95957.47
